Time;durP1;ratioP1;P1;durP2;ratioP2;P2;SDS_P1;SDS_P2;PMS_P1;PMS_P2;Temp;Humidity;BMP_temperature;BMP_pressure;BME280_temperature;BME280_humidity;BME280_pressure;Samples;Min_cycle;Max_cycle;Signal;HPM_P1;HPM_P2
2021/08/20 00:02:21;;;;;;;3.83;3.53;;;21.50;96.00;;;;;;6320631;28;20250;-61
2021/08/20 00:05:25;;;;;;;3.67;3.27;;;21.50;96.10;;;;;;6325081;28;20222;-61
2021/08/20 00:08:28;;;;;;;6.53;3.40;;;21.50;96.10;;;;;;6327661;28;20683;-61
2021/08/20 00:11:31;;;;;;;3.97;3.60;;;21.50;96.00;;;;;;6332103;28;20229;-61
2021/08/20 00:14:34;;;;;;;4.33;3.93;;;21.50;96.00;;;;;;6326899;28;20214;-61
2021/08/20 00:17:39;;;;;;;3.60;3.00;;;21.50;95.80;;;;;;6323953;28;20222;-61
2021/08/20 00:20:42;;;;;;;3.57;2.83;;;21.50;96.10;;;;;;6323673;28;20615;-62
2021/08/20 00:23:45;;;;;;;3.87;3.47;;;21.50;95.90;;;;;;6323555;28;20698;-61
2021/08/20 00:26:48;;;;;;;4.40;3.43;;;21.50;95.80;;;;;;6322303;28;20244;-61
2021/08/20 00:29:51;;;;;;;4.20;3.80;;;21.50;95.80;;;;;;6323743;28;20662;-61
2021/08/20 00:32:56;;;;;;;4.10;3.70;;;21.50;95.90;;;;;;6323765;28;20538;-61
2021/08/20 00:35:59;;;;;;;4.43;3.67;;;21.50;95.90;;;;;;6323427;28;20229;-61
2021/08/20 00:39:02;;;;;;;3.47;3.17;;;21.50;96.00;;;;;;6321309;28;20676;-61
2021/08/20 00:42:06;;;;;;;4.30;3.30;;;21.40;96.00;;;;;;6323354;28;20745;-61
2021/08/20 00:45:10;;;;;;;3.80;3.50;;;21.50;96.20;;;;;;6323977;28;20218;-61
2021/08/20 00:48:15;;;;;;;4.07;3.67;;;21.50;96.10;;;;;;6323171;28;20248;-61
2021/08/20 00:51:21;;;;;;;5.07;3.67;;;21.50;96.10;;;;;;6321650;28;20228;-61
2021/08/20 00:54:25;;;;;;;4.47;3.67;;;21.50;96.00;;;;;;6330558;28;20602;-61
2021/08/20 00:57:29;;;;;;;3.73;3.43;;;21.40;96.10;;;;;;6324314;28;20321;-61
2021/08/20 01:00:32;;;;;;;9.20;4.27;;;21.30;96.20;;;;;;6321451;28;20692;-61
2021/08/20 01:03:38;;;;;;;4.10;3.50;;;21.30;96.20;;;;;;6322021;28;20229;-61
2021/08/20 01:06:42;;;;;;;3.70;3.40;;;21.30;96.30;;;;;;6323447;28;20228;-61
2021/08/20 01:09:47;;;;;;;4.13;3.40;;;21.30;96.30;;;;;;6318703;28;20234;-61
2021/08/20 01:12:50;;;;;;;3.90;3.50;;;21.30;96.20;;;;;;6321947;27;20233;-62
2021/08/20 01:15:55;;;;;;;6.43;4.13;;;21.20;96.20;;;;;;6323170;28;20218;-62
2021/08/20 01:19:00;;;;;;;9.87;3.70;;;21.20;96.20;;;;;;6323345;28;20218;-62
2021/08/20 01:22:06;;;;;;;5.33;4.10;;;21.10;96.20;;;;;;6322924;27;20222;-61
2021/08/20 01:25:12;;;;;;;5.60;4.27;;;21.10;96.10;;;;;;6323330;28;20233;-62
2021/08/20 01:28:15;;;;;;;4.47;4.07;;;21.10;96.00;;;;;;6322775;28;20241;-61
2021/08/20 01:31:18;;;;;;;4.40;3.80;;;21.20;95.90;;;;;;6323199;28;20233;-62
2021/08/20 01:34:22;;;;;;;8.60;5.77;;;21.20;95.80;;;;;;6322963;28;20222;-61
2021/08/20 01:37:25;;;;;;;6.57;5.87;;;21.20;95.90;;;;;;6323318;28;20221;-61
2021/08/20 01:40:30;;;;;;;6.63;5.10;;;21.10;96.00;;;;;;6323136;27;20210;-61
2021/08/20 01:43:33;;;;;;;6.07;4.70;;;21.20;96.20;;;;;;6323079;28;20198;-61
2021/08/20 01:46:36;;;;;;;6.07;3.80;;;21.20;96.30;;;;;;6322557;28;20229;-62
2021/08/20 01:49:41;;;;;;;5.27;4.77;;;21.10;96.30;;;;;;6322931;28;20230;-61
2021/08/20 01:52:44;;;;;;;6.23;3.90;;;21.10;96.40;;;;;;6323032;28;20229;-62
2021/08/20 01:55:49;;;;;;;5.80;3.70;;;21.10;96.40;;;;;;6323114;28;20230;-61
2021/08/20 01:58:52;;;;;;;5.03;3.90;;;21.10;96.50;;;;;;6321240;28;20226;-62
2021/08/20 02:02:04;;;;;;;4.50;3.50;;;21.10;96.50;;;;;;6322366;28;20687;-61
2021/08/20 02:05:08;;;;;;;6.53;4.40;;;21.10;96.60;;;;;;6322394;28;20314;-62
2021/08/20 02:08:11;;;;;;;4.13;3.53;;;21.10;96.70;;;;;;6322032;28;20308;-62
2021/08/20 02:11:16;;;;;;;6.57;4.90;;;21.00;96.70;;;;;;6318154;28;20225;-61
2021/08/20 02:14:19;;;;;;;4.07;3.67;;;21.00;96.80;;;;;;6318422;27;20218;-61
2021/08/20 02:17:23;;;;;;;5.67;3.97;;;21.00;96.80;;;;;;6307936;28;20241;-61
2021/08/20 02:20:26;;;;;;;5.10;4.67;;;21.00;96.80;;;;;;6307789;28;20616;-62
2021/08/20 02:23:29;;;;;;;3.60;3.30;;;21.00;96.80;;;;;;6308459;28;20231;-62
2021/08/20 02:26:34;;;;;;;4.63;4.10;;;21.00;97.00;;;;;;6311509;28;21048;-62
2021/08/20 02:29:37;;;;;;;4.80;4.10;;;21.00;97.20;;;;;;6323433;28;20233;-62
2021/08/20 02:32:40;;;;;;;4.60;4.10;;;21.00;97.30;;;;;;6322223;28;20222;-62
2021/08/20 02:35:57;;;;;;;4.33;3.93;;;20.90;97.40;;;;;;6322633;28;20219;-62
2021/08/20 02:39:00;;;;;;;5.20;4.00;;;20.90;97.50;;;;;;6321992;28;21139;-62
2021/08/20 02:42:05;;;;;;;3.70;3.40;;;20.90;97.50;;;;;;6325908;28;20233;-62
2021/08/20 02:45:09;;;;;;;5.07;3.70;;;20.90;97.50;;;;;;6325540;28;20229;-61
2021/08/20 02:48:12;;;;;;;4.83;4.30;;;20.90;97.50;;;;;;6327018;28;20232;-62
2021/08/20 02:51:15;;;;;;;5.20;3.73;;;20.90;97.50;;;;;;6326870;28;20229;-62
2021/08/20 02:54:18;;;;;;;5.00;3.83;;;20.90;97.50;;;;;;6328379;28;20229;-62
2021/08/20 02:57:27;;;;;;;3.83;3.43;;;20.90;97.50;;;;;;6326602;28;20241;-62
2021/08/20 03:00:30;;;;;;;3.93;3.53;;;20.80;97.60;;;;;;6326151;28;20268;-62
2021/08/20 03:03:33;;;;;;;6.53;4.40;;;20.80;97.70;;;;;;6324664;28;20546;-62
2021/08/20 03:06:37;;;;;;;4.67;4.20;;;20.80;97.70;;;;;;6326228;28;20226;-62
2021/08/20 03:09:40;;;;;;;5.40;4.90;;;20.80;97.70;;;;;;6326479;28;20218;-62
2021/08/20 03:12:46;;;;;;;5.50;4.30;;;20.70;97.60;;;;;;6326102;28;20229;-62
2021/08/20 03:15:49;;;;;;;5.87;4.00;;;20.70;97.60;;;;;;6321629;28;20558;-62
2021/08/20 03:18:52;;;;;;;4.83;3.60;;;20.70;97.70;;;;;;6325956;28;20234;-62
2021/08/20 03:21:56;;;;;;;4.80;4.40;;;20.70;97.70;;;;;;6325986;28;20229;-62
2021/08/20 03:24:59;;;;;;;6.90;4.60;;;20.60;97.70;;;;;;6325675;28;20217;-63
2021/08/20 03:28:06;;;;;;;5.07;3.90;;;20.60;97.90;;;;;;6323918;28;20226;-62
2021/08/20 03:31:09;;;;;;;5.87;5.00;;;20.60;97.80;;;;;;6325596;28;20233;-61
2021/08/20 03:34:12;;;;;;;4.40;4.00;;;20.70;98.00;;;;;;6325718;28;20214;-62
2021/08/20 03:37:15;;;;;;;5.30;4.80;;;20.60;97.70;;;;;;6325545;27;20226;-62
2021/08/20 03:40:18;;;;;;;4.60;4.07;;;20.70;97.60;;;;;;6323577;28;20222;-62
2021/08/20 03:43:23;;;;;;;8.63;4.93;;;20.60;97.60;;;;;;6325682;28;20222;-62
2021/08/20 03:46:26;;;;;;;5.90;5.30;;;20.60;97.50;;;;;;6325371;28;20229;-62
2021/08/20 03:49:29;;;;;;;4.90;4.40;;;20.60;97.70;;;;;;6325347;28;20209;-62
2021/08/20 03:52:32;;;;;;;5.60;5.03;;;20.60;97.80;;;;;;6323675;28;20518;-62
2021/08/20 03:55:35;;;;;;;6.47;4.60;;;20.60;98.30;;;;;;6325064;28;20199;-61
2021/08/20 03:58:40;;;;;;;5.10;4.27;;;20.60;97.80;;;;;;6324816;28;20245;-62
2021/08/20 04:01:43;;;;;;;5.50;4.70;;;20.60;97.40;;;;;;6325469;28;20272;-62
2021/08/20 04:04:46;;;;;;;6.60;4.50;;;20.60;97.40;;;;;;6324940;28;20386;-61
2021/08/20 04:07:49;;;;;;;5.80;4.27;;;20.60;97.40;;;;;;6317482;28;20233;-61
2021/08/20 04:10:52;;;;;;;4.73;4.00;;;20.50;97.80;;;;;;6312565;28;20696;-61
2021/08/20 04:14:01;;;;;;;5.13;4.17;;;20.60;98.20;;;;;;6312998;28;20237;-61
2021/08/20 04:17:05;;;;;;;3.67;3.37;;;20.60;98.30;;;;;;6300237;28;20502;-62
2021/08/20 04:20:09;;;;;;;5.27;4.57;;;20.60;98.40;;;;;;6285967;28;20226;-61
2021/08/20 04:23:13;;;;;;;5.40;3.60;;;20.60;98.60;;;;;;6300384;28;20235;-61
2021/08/20 04:26:16;;;;;;;3.67;3.27;;;20.60;98.60;;;;;;6311696;28;20565;-61
2021/08/20 04:29:21;;;;;;;4.23;3.93;;;20.60;98.50;;;;;;6312159;28;20692;-62
2021/08/20 04:32:24;;;;;;;5.07;3.93;;;20.60;98.60;;;;;;6312199;28;20218;-62
2021/08/20 04:35:27;;;;;;;4.40;3.83;;;20.60;98.60;;;;;;6312396;28;20229;-62
2021/08/20 04:38:31;;;;;;;4.37;3.60;;;20.50;98.60;;;;;;6311586;28;20548;-61
2021/08/20 04:41:34;;;;;;;4.17;3.87;;;20.60;99.20;;;;;;6299581;28;20713;-62
2021/08/20 04:44:38;;;;;;;4.60;3.67;;;20.60;98.90;;;;;;6299586;28;20292;-62
2021/08/20 04:47:41;;;;;;;5.03;3.83;;;20.60;98.90;;;;;;6299114;28;20231;-63
2021/08/20 04:50:45;;;;;;;4.30;3.90;;;20.70;98.80;;;;;;6311228;28;20230;-62
2021/08/20 04:53:50;;;;;;;4.83;3.90;;;20.70;98.70;;;;;;6311630;28;20234;-62
2021/08/20 04:56:53;;;;;;;6.90;3.53;;;20.70;98.60;;;;;;6311412;28;20666;-62
2021/08/20 04:59:58;;;;;;;7.80;4.70;;;20.80;98.50;;;;;;6311428;28;20230;-62
2021/08/20 05:03:02;;;;;;;5.97;3.70;;;20.80;98.20;;;;;;6311220;28;20320;-62
2021/08/20 05:06:08;;;;;;;6.00;4.97;;;20.90;98.00;;;;;;6299046;28;20665;-62
2021/08/20 05:09:11;;;;;;;5.73;5.13;;;20.90;98.00;;;;;;6298798;28;20572;-62
2021/08/20 05:12:14;;;;;;;7.00;5.00;;;21.00;97.60;;;;;;6298894;28;20238;-62
2021/08/20 05:15:19;;;;;;;5.47;4.80;;;21.00;97.50;;;;;;6298944;28;20567;-62
2021/08/20 05:18:22;;;;;;;6.73;5.17;;;21.00;97.50;;;;;;6311277;28;20237;-62
2021/08/20 05:21:25;;;;;;;7.50;5.00;;;21.10;97.60;;;;;;6311546;28;20231;-62
2021/08/20 05:24:28;;;;;;;5.63;4.77;;;21.10;97.50;;;;;;6302004;28;20238;-61
2021/08/20 05:27:31;;;;;;;6.80;4.83;;;21.10;97.60;;;;;;6311440;28;20230;-62
2021/08/20 05:30:36;;;;;;;7.10;4.93;;;21.30;97.40;;;;;;6311375;28;20320;-61
2021/08/20 05:33:40;;;;;;;6.60;4.50;;;21.50;96.90;;;;;;6298723;28;20676;-62
2021/08/20 05:36:43;;;;;;;5.27;4.40;;;21.90;96.60;;;;;;6298144;28;20227;-62
2021/08/20 05:39:46;;;;;;;5.90;4.47;;;22.30;95.90;;;;;;6298531;28;20223;-62
2021/08/20 05:42:49;;;;;;;5.63;5.00;;;22.80;94.80;;;;;;6310211;28;20221;-62
2021/08/20 05:45:54;;;;;;;6.13;5.07;;;23.40;93.50;;;;;;6310842;28;20221;-61
2021/08/20 05:48:57;;;;;;;7.30;4.83;;;23.70;91.80;;;;;;6310670;28;20226;-61
2021/08/20 05:52:00;;;;;;;6.63;4.90;;;23.60;92.00;;;;;;6310520;28;20229;-61
2021/08/20 05:55:05;;;;;;;9.10;5.10;;;23.60;91.70;;;;;;6310687;28;20238;-61
2021/08/20 05:58:08;;;;;;;8.77;4.67;;;23.50;91.70;;;;;;6310711;28;20600;-61
2021/08/20 06:01:12;;;;;;;8.10;4.80;;;23.40;91.60;;;;;;6311126;28;20669;-61
2021/08/20 06:04:16;;;;;;;5.80;4.90;;;23.30;91.70;;;;;;6310952;28;20603;-62
2021/08/20 06:07:19;;;;;;;5.67;5.07;;;23.30;91.70;;;;;;6311127;28;20226;-62
2021/08/20 06:10:23;;;;;;;5.10;4.60;;;23.20;91.70;;;;;;6310684;28;20383;-61
2021/08/20 06:13:26;;;;;;;9.30;5.33;;;23.30;91.80;;;;;;6298068;28;20520;-62
2021/08/20 06:16:31;;;;;;;9.07;4.37;;;23.30;91.70;;;;;;6301639;28;20210;-61
2021/08/20 06:19:34;;;;;;;6.67;4.80;;;23.40;91.70;;;;;;6303699;28;20225;-61
2021/08/20 06:22:37;;;;;;;6.90;4.77;;;23.60;91.40;;;;;;6310215;28;20640;-61
2021/08/20 06:25:40;;;;;;;5.90;4.27;;;23.70;91.30;;;;;;6298424;28;20210;-61
2021/08/20 06:28:43;;;;;;;7.63;4.60;;;23.80;91.30;;;;;;6302446;28;20235;-61
2021/08/20 06:31:48;;;;;;;8.07;4.60;;;23.80;91.10;;;;;;6302618;28;20564;-61
2021/08/20 06:34:51;;;;;;;5.00;4.27;;;23.80;90.80;;;;;;6314150;28;20244;-62
2021/08/20 06:37:55;;;;;;;7.20;4.93;;;23.90;90.50;;;;;;6314806;28;20242;-61
2021/08/20 06:40:58;;;;;;;5.60;4.50;;;23.90;90.20;;;;;;6315335;28;20573;-62
2021/08/20 06:44:01;;;;;;;6.63;4.40;;;24.10;89.60;;;;;;6315127;28;20219;-61
2021/08/20 06:47:05;;;;;;;5.53;4.47;;;24.10;90.00;;;;;;6315026;28;20245;-63
2021/08/20 06:50:10;;;;;;;5.17;4.67;;;24.10;90.10;;;;;;6315032;28;20225;-61
2021/08/20 06:53:13;;;;;;;7.73;3.97;;;24.10;90.00;;;;;;6314639;28;20237;-61
2021/08/20 06:56:16;;;;;;;4.20;3.80;;;24.10;90.20;;;;;;6314255;28;20241;-62
2021/08/20 06:59:19;;;;;;;5.10;4.00;;;24.10;90.40;;;;;;6314450;28;20238;-62
2021/08/20 07:02:24;;;;;;;5.00;4.30;;;24.10;90.30;;;;;;6314161;28;20234;-62
2021/08/20 07:05:27;;;;;;;4.60;4.20;;;25.00;90.20;;;;;;6315186;28;20231;-62
2021/08/20 07:08:31;;;;;;;7.10;4.33;;;27.30;83.10;;;;;;6314039;28;20546;-62
2021/08/20 07:11:34;;;;;;;3.57;3.27;;;29.50;73.90;;;;;;6314548;28;20226;-63
2021/08/20 07:14:37;;;;;;;3.80;3.50;;;31.50;65.40;;;;;;6314270;28;20294;-62
2021/08/20 07:17:42;;;;;;;3.90;3.50;;;33.10;58.90;;;;;;6313800;28;20237;-63
2021/08/20 07:20:45;;;;;;;4.00;3.70;;;34.60;53.80;;;;;;6301342;28;20222;-63
2021/08/20 07:23:48;;;;;;;4.70;3.83;;;35.60;49.50;;;;;;6301181;28;20245;-62
2021/08/20 07:26:51;;;;;;;4.32;3.45;;;35.40;48.40;;;;;;6301245;28;20230;-63
2021/08/20 07:29:54;;;;;;;3.90;3.50;;;36.40;46.10;;;;;;6312841;28;20569;-63
2021/08/20 07:32:59;;;;;;;3.95;3.58;;;37.80;44.00;;;;;;6317239;28;20290;-62
2021/08/20 07:36:02;;;;;;;4.63;3.90;;;38.70;41.70;;;;;;6341685;28;20228;-63
2021/08/20 07:39:05;;;;;;;3.72;3.35;;;39.20;40.20;;;;;;6340632;28;20239;-62
2021/08/20 07:42:09;;;;;;;4.30;3.90;;;40.10;38.80;;;;;;6328615;28;20226;-63
2021/08/20 07:45:12;;;;;;;5.25;3.75;;;41.00;37.20;;;;;;6323997;28;20240;-65
2021/08/20 07:48:17;;;;;;;4.47;4.07;;;40.90;35.10;;;;;;6312659;28;20230;-64
2021/08/20 07:51:20;;;;;;;4.10;3.80;;;40.90;35.10;;;;;;6311091;28;20233;-66
2021/08/20 07:54:23;;;;;;;4.20;3.80;;;41.60;34.00;;;;;;6313159;28;20229;-66
2021/08/20 07:57:26;;;;;;;6.30;4.03;;;42.40;33.40;;;;;;6312236;28;20295;-65
2021/08/20 08:00:31;;;;;;;3.92;3.53;;;43.10;31.90;;;;;;6300427;28;20232;-64
2021/08/20 08:03:36;;;;;;;4.43;4.03;;;43.80;31.10;;;;;;6299667;28;20309;-65
2021/08/20 08:06:40;;;;;;;3.70;3.40;;;44.60;29.60;;;;;;6300189;28;20368;-64
2021/08/20 08:09:43;;;;;;;4.47;4.07;;;44.90;29.10;;;;;;6307679;28;20676;-63
2021/08/20 08:12:46;;;;;;;4.20;3.80;;;45.60;28.90;;;;;;6300344;28;20234;-65
2021/08/20 08:15:49;;;;;;;3.92;3.53;;;46.40;27.80;;;;;;6306920;28;20363;-66
2021/08/20 08:18:54;;;;;;;3.97;3.30;;;47.00;27.40;;;;;;6312937;28;20249;-66
2021/08/20 08:21:57;;;;;;;6.35;3.75;;;47.50;26.70;;;;;;6312301;28;20254;-65
2021/08/20 08:25:00;;;;;;;5.72;3.67;;;48.40;25.90;;;;;;6312379;28;20227;-65
2021/08/20 08:28:04;;;;;;;3.65;3.35;;;48.40;25.40;;;;;;6311506;28;20547;-65
2021/08/20 08:31:07;;;;;;;5.47;3.40;;;49.30;24.60;;;;;;6314217;28;20682;-65
2021/08/20 08:34:12;;;;;;;4.45;3.60;;;48.70;24.50;;;;;;6312258;28;20230;-65
2021/08/20 08:37:15;;;;;;;3.75;3.45;;;48.90;24.50;;;;;;6302138;28;20240;-66
2021/08/20 08:40:18;;;;;;;4.68;3.42;;;50.00;23.80;;;;;;6300518;28;20226;-66
2021/08/20 08:43:21;;;;;;;3.97;3.15;;;50.70;23.10;;;;;;6312291;28;20237;-65
2021/08/20 08:46:26;;;;;;;4.70;3.70;;;51.30;22.60;;;;;;6312069;28;20651;-64
2021/08/20 08:49:31;;;;;;;3.75;3.42;;;51.90;22.60;;;;;;6333343;28;20224;-63
2021/08/20 08:52:35;;;;;;;3.22;3.00;;;52.50;22.20;;;;;;6337443;28;20210;-63
2021/08/20 08:55:38;;;;;;;3.38;3.10;;;52.70;21.50;;;;;;6312972;28;20385;-66
2021/08/20 08:58:41;;;;;;;4.05;3.75;;;53.20;21.20;;;;;;6311773;28;20741;-65
2021/08/20 09:01:45;;;;;;;3.95;3.63;;;53.40;20.90;;;;;;6311479;28;20259;-66
2021/08/20 09:05:01;;;;;;;4.22;3.20;;;52.80;20.20;;;;;;6311764;28;20218;-66
2021/08/20 09:08:12;;;;;;;3.97;3.67;;;52.80;20.00;;;;;;6328739;28;20286;-64
2021/08/20 09:11:26;;;;;;;4.25;3.95;;;52.60;19.90;;;;;;6304369;28;20222;-65
2021/08/20 09:14:30;;;;;;;3.80;3.50;;;51.20;20.80;;;;;;6313522;28;20702;-66
2021/08/20 09:17:35;;;;;;;3.72;3.42;;;49.10;21.80;;;;;;6311462;28;20229;-66
2021/08/20 09:20:39;;;;;;;3.60;3.30;;;45.80;23.30;;;;;;6312019;28;20236;-64
2021/08/20 09:23:43;;;;;;;3.92;3.60;;;42.80;25.30;;;;;;6311382;28;20581;-64
2021/08/20 09:26:46;;;;;;;4.75;3.50;;;41.40;26.70;;;;;;6311288;28;20233;-65
2021/08/20 09:29:57;;;;;;;4.25;3.88;;;39.80;28.30;;;;;;6311445;28;20230;-64
2021/08/20 09:33:00;;;;;;;4.20;3.80;;;38.40;29.50;;;;;;6311394;28;20233;-64
2021/08/20 09:36:07;;;;;;;4.60;4.20;;;37.10;30.00;;;;;;6311122;28;20626;-65
2021/08/20 09:39:10;;;;;;;4.45;3.75;;;36.10;31.90;;;;;;6305827;28;21029;-62
2021/08/20 09:42:15;;;;;;;3.72;3.38;;;35.50;33.40;;;;;;6308459;28;20587;-62
2021/08/20 09:45:20;;;;;;;4.72;3.72;;;35.30;34.10;;;;;;6317267;28;20232;-63
2021/08/20 09:48:39;;;;;;;3.88;3.53;;;35.10;34.80;;;;;;6318552;28;20218;-63
2021/08/20 09:51:45;;;;;;;4.10;3.70;;;34.90;33.40;;;;;;6303591;28;20243;-63
2021/08/20 09:54:49;;;;;;;4.78;4.32;;;34.30;34.30;;;;;;6303970;28;20237;-64
2021/08/20 09:57:52;;;;;;;3.80;3.50;;;33.90;34.00;;;;;;6303463;28;20249;-63
2021/08/20 10:00:56;;;;;;;4.80;4.00;;;33.60;34.80;;;;;;6310369;28;20733;-63
2021/08/20 10:04:02;;;;;;;3.83;3.53;;;33.40;35.60;;;;;;6335295;28;20233;-63
2021/08/20 10:07:06;;;;;;;4.82;3.95;;;33.20;36.50;;;;;;6336405;28;20233;-63
2021/08/20 10:10:11;;;;;;;4.25;3.65;;;33.00;36.70;;;;;;6353651;28;20240;-63
2021/08/20 10:13:17;;;;;;;4.72;4.00;;;32.70;37.30;;;;;;6353900;28;20235;-63
2021/08/20 10:16:21;;;;;;;5.75;4.03;;;32.60;37.50;;;;;;6335405;28;20549;-63
2021/08/20 10:19:25;;;;;;;6.63;5.03;;;32.40;37.70;;;;;;6330094;27;20316;-62
2021/08/20 10:22:31;;;;;;;6.13;3.85;;;31.90;39.20;;;;;;6338271;28;20197;-63
2021/08/20 10:25:34;;;;;;;3.63;3.33;;;31.80;39.00;;;;;;6333243;28;20539;-64
2021/08/20 10:28:40;;;;;;;4.97;4.47;;;31.60;39.20;;;;;;6316204;28;20234;-62
2021/08/20 10:31:44;;;;;;;3.25;2.92;;;31.60;40.20;;;;;;6320206;28;20318;-64
2021/08/20 10:34:47;;;;;;;3.78;3.35;;;31.30;39.10;;;;;;6314366;28;20230;-63
2021/08/20 10:37:52;;;;;;;4.55;3.67;;;31.10;39.20;;;;;;6314702;28;20234;-63
2021/08/20 10:41:23;;;;;;;3.55;3.25;;;31.30;40.20;;;;;;6316315;28;20228;-63
2021/08/20 10:44:35;;;;;;;3.95;3.42;;;31.30;39.90;;;;;;6276350;28;20237;-65
2021/08/20 10:47:40;;;;;;;3.70;3.40;;;31.10;41.00;;;;;;6313923;28;20265;-63
2021/08/20 10:50:43;;;;;;;5.68;3.28;;;31.00;41.80;;;;;;6309028;28;20237;-62
2021/08/20 10:53:49;;;;;;;3.70;3.40;;;30.90;40.20;;;;;;6315038;28;20222;-65
2021/08/20 10:56:52;;;;;;;4.63;3.38;;;30.80;40.60;;;;;;6311427;28;20240;-62
2021/08/20 10:59:56;;;;;;;3.85;3.45;;;30.60;40.90;;;;;;6301577;28;20291;-62
2021/08/20 11:03:01;;;;;;;5.47;3.63;;;30.40;40.90;;;;;;6301480;28;20238;-62
2021/08/20 11:06:04;;;;;;;4.25;3.85;;;30.60;40.60;;;;;;6308652;28;20233;-63
2021/08/20 11:09:34;;;;;;;3.85;3.40;;;30.90;41.10;;;;;;6315178;28;20672;-63
2021/08/20 11:12:38;;;;;;;3.83;3.50;;;31.20;40.70;;;;;;6302382;28;20279;-63
2021/08/20 11:15:45;;;;;;;4.32;3.80;;;31.20;41.00;;;;;;6316450;28;20236;-63
2021/08/20 11:18:50;;;;;;;4.32;3.70;;;31.30;40.40;;;;;;6313139;28;20570;-62
2021/08/20 11:21:53;;;;;;;2.95;2.70;;;31.00;38.50;;;;;;6312627;28;20228;-62
2021/08/20 11:25:24;;;;;;;3.55;3.25;;;31.20;39.10;;;;;;6312954;28;20230;-62
2021/08/20 11:28:29;;;;;;;3.90;3.05;;;31.30;39.80;;;;;;6305442;28;20226;-63
2021/08/20 11:31:32;;;;;;;3.67;3.38;;;31.20;40.00;;;;;;6321407;28;20236;-62
2021/08/20 11:34:35;;;;;;;4.10;3.80;;;31.30;39.70;;;;;;6311984;28;20550;-62
2021/08/20 11:37:52;;;;;;;4.00;3.47;;;31.40;39.10;;;;;;6312896;28;20222;-62
2021/08/20 11:41:03;;;;;;;3.20;2.90;;;30.90;39.60;;;;;;6316679;28;20228;-62
2021/08/20 11:44:27;;;;;;;3.53;3.22;;;30.90;40.00;;;;;;6327585;28;20232;-63
2021/08/20 11:47:30;;;;;;;4.73;3.90;;;30.80;39.70;;;;;;6303702;28;20237;-64
2021/08/20 11:50:34;;;;;;;3.47;3.17;;;30.90;40.00;;;;;;6308337;28;20230;-64
2021/08/20 11:53:38;;;;;;;3.67;3.38;;;31.10;39.80;;;;;;6300449;28;20238;-64
2021/08/20 11:56:53;;;;;;;3.13;2.83;;;31.20;39.30;;;;;;6300597;28;20234;-62
2021/08/20 11:59:56;;;;;;;3.40;3.10;;;31.10;37.70;;;;;;6311725;28;20231;-62
2021/08/20 12:03:06;;;;;;;5.63;3.85;;;31.10;38.20;;;;;;6300574;28;20283;-62
2021/08/20 12:06:11;;;;;;;4.47;3.22;;;30.90;38.50;;;;;;6304137;28;20228;-63
2021/08/20 12:09:16;;;;;;;3.45;3.15;;;30.80;38.20;;;;;;6313595;28;20237;-62
2021/08/20 12:12:20;;;;;;;4.05;3.40;;;30.50;39.10;;;;;;6310587;28;20237;-63
2021/08/20 12:15:29;;;;;;;3.80;3.45;;;30.70;38.60;;;;;;6316683;28;20222;-61
2021/08/20 12:18:32;;;;;;;3.65;3.15;;;30.90;37.50;;;;;;6312885;28;20237;-62
2021/08/20 12:21:35;;;;;;;3.60;3.30;;;31.00;37.20;;;;;;6312231;28;20230;-62
2021/08/20 12:24:41;;;;;;;4.57;3.33;;;31.10;36.90;;;;;;6311052;28;20687;-62
2021/08/20 12:27:47;;;;;;;3.83;2.90;;;31.00;36.50;;;;;;6299554;28;20241;-62
2021/08/20 12:30:50;;;;;;;3.30;3.00;;;31.00;35.70;;;;;;6299082;28;20297;-62
2021/08/20 12:33:58;;;;;;;3.60;3.17;;;31.00;36.30;;;;;;6299401;28;20226;-62
2021/08/20 12:37:03;;;;;;;5.65;3.00;;;30.80;36.10;;;;;;6302773;28;20233;-63
2021/08/20 12:40:09;;;;;;;3.88;3.28;;;31.00;37.30;;;;;;6310893;28;20222;-63
2021/08/20 12:43:25;;;;;;;3.63;3.05;;;30.80;37.50;;;;;;6306329;28;20221;-63
2021/08/20 12:46:34;;;;;;;5.07;3.63;;;31.00;36.60;;;;;;6298956;28;20226;-61
2021/08/20 12:49:59;;;;;;;3.10;2.80;;;30.90;37.90;;;;;;6294692;28;20232;-63
2021/08/20 12:53:04;;;;;;;3.45;2.92;;;30.70;38.10;;;;;;6311001;28;20236;-63
2021/08/20 12:56:08;;;;;;;4.90;3.20;;;30.70;38.40;;;;;;6312192;28;20225;-63
2021/08/20 12:59:17;;;;;;;3.35;3.05;;;30.60;38.70;;;;;;6336987;28;20220;-63
2021/08/20 13:02:20;;;;;;;3.40;3.10;;;30.50;38.30;;;;;;6298862;28;20222;-64
2021/08/20 13:05:23;;;;;;;4.20;3.80;;;30.30;38.30;;;;;;6298695;28;20304;-63
2021/08/20 13:08:28;;;;;;;4.07;3.63;;;30.30;38.70;;;;;;6308397;28;20240;-63
2021/08/20 13:11:31;;;;;;;3.07;2.80;;;30.10;38.80;;;;;;6313998;28;20229;-63
2021/08/20 13:14:35;;;;;;;3.30;3.00;;;29.70;40.00;;;;;;6312649;28;20228;-63
2021/08/20 13:17:40;;;;;;;4.03;3.47;;;29.60;40.10;;;;;;6311146;28;20595;-63
2021/08/20 13:20:43;;;;;;;4.00;3.60;;;29.60;40.10;;;;;;6310226;28;20222;-62
2021/08/20 13:23:47;;;;;;;3.40;3.10;;;29.80;40.80;;;;;;6311198;28;20230;-63
2021/08/20 13:26:51;;;;;;;3.53;3.23;;;29.70;40.50;;;;;;6311827;28;20229;-62
2021/08/20 13:29:56;;;;;;;4.57;4.00;;;29.70;40.40;;;;;;6330078;28;20252;-62
2021/08/20 13:33:00;;;;;;;4.60;4.10;;;29.50;40.30;;;;;;6336904;28;20558;-62
2021/08/20 13:36:06;;;;;;;3.60;3.30;;;29.60;40.90;;;;;;6327599;28;20224;-63
2021/08/20 13:39:12;;;;;;;3.63;3.33;;;29.60;40.60;;;;;;6335400;28;20236;-62
2021/08/20 13:42:15;;;;;;;3.50;3.20;;;29.50;41.10;;;;;;6332973;28;20214;-62
2021/08/20 13:45:20;;;;;;;3.73;3.30;;;29.60;41.40;;;;;;6331778;28;20217;-62
2021/08/20 13:48:23;;;;;;;4.13;3.67;;;29.30;41.50;;;;;;6331534;28;20783;-62
2021/08/20 13:51:26;;;;;;;4.20;3.33;;;29.20;41.80;;;;;;6333137;28;20221;-62
2021/08/20 13:54:30;;;;;;;4.10;3.70;;;29.10;41.80;;;;;;6335320;28;20232;-63
2021/08/20 13:57:34;;;;;;;3.97;3.57;;;29.00;42.20;;;;;;6319664;28;20233;-62
2021/08/20 14:00:39;;;;;;;3.80;3.27;;;29.10;41.50;;;;;;6332887;28;20233;-61
2021/08/20 14:03:43;;;;;;;4.17;3.10;;;29.00;41.30;;;;;;6338912;28;20216;-64
2021/08/20 14:06:47;;;;;;;4.77;3.30;;;28.80;42.10;;;;;;6311703;28;20234;-67
2021/08/20 14:09:50;;;;;;;4.20;3.80;;;28.70;42.30;;;;;;6311658;28;20546;-62
2021/08/20 14:12:53;;;;;;;4.43;3.73;;;28.70;42.40;;;;;;6309943;28;20253;-62
2021/08/20 14:15:58;;;;;;;4.47;3.57;;;28.70;42.20;;;;;;6310360;28;20233;-62
2021/08/20 14:19:01;;;;;;;3.80;3.40;;;28.80;42.10;;;;;;6297992;28;20230;-62
2021/08/20 14:22:05;;;;;;;4.13;3.73;;;28.80;42.10;;;;;;6297605;28;20237;-62
2021/08/20 14:25:10;;;;;;;4.37;3.97;;;28.90;42.20;;;;;;6298041;28;20222;-62
2021/08/20 14:28:13;;;;;;;3.80;3.50;;;28.90;42.40;;;;;;6305326;28;20241;-61
2021/08/20 14:31:18;;;;;;;4.53;3.90;;;28.70;42.20;;;;;;6316207;28;20282;-62
2021/08/20 14:34:21;;;;;;;4.27;3.87;;;28.60;42.70;;;;;;6337245;28;20213;-61
2021/08/20 14:37:25;;;;;;;4.00;3.60;;;28.40;42.90;;;;;;6342807;28;21507;-62
2021/08/20 14:40:28;;;;;;;4.40;4.00;;;28.40;42.50;;;;;;6337699;28;20824;-62
2021/08/20 14:43:33;;;;;;;4.80;3.80;;;28.50;42.70;;;;;;6340130;28;20626;-63
2021/08/20 14:46:38;;;;;;;3.43;3.13;;;28.60;42.10;;;;;;6333700;28;20221;-62
2021/08/20 14:49:41;;;;;;;3.73;3.43;;;28.50;42.30;;;;;;6333796;28;20230;-63
2021/08/20 14:52:45;;;;;;;3.67;3.37;;;28.50;42.10;;;;;;6315215;28;20226;-63
2021/08/20 14:55:48;;;;;;;4.47;4.07;;;28.50;42.40;;;;;;6314849;28;20225;-63
2021/08/20 14:58:51;;;;;;;4.40;3.93;;;28.50;42.90;;;;;;6308295;28;20233;-62
2021/08/20 15:01:56;;;;;;;4.07;3.03;;;28.30;42.60;;;;;;6314642;28;20238;-63
2021/08/20 15:05:01;;;;;;;4.33;3.93;;;28.30;42.70;;;;;;6315535;28;20239;-63
2021/08/20 15:08:04;;;;;;;4.27;3.87;;;28.20;43.80;;;;;;6319500;28;20225;-62
2021/08/20 15:11:11;;;;;;;4.07;3.67;;;28.10;43.40;;;;;;6323025;28;20230;-62
2021/08/20 15:14:15;;;;;;;4.60;3.60;;;28.10;43.70;;;;;;6314571;28;20229;-62
2021/08/20 15:17:33;;;;;;;3.60;3.30;;;28.00;44.30;;;;;;6323513;28;20229;-62
2021/08/20 15:20:38;;;;;;;4.77;3.30;;;28.20;44.50;;;;;;6322775;28;20240;-61
2021/08/20 15:23:41;;;;;;;3.20;2.90;;;28.00;44.90;;;;;;6309033;28;20230;-61
2021/08/20 15:26:45;;;;;;;3.03;2.53;;;27.90;44.80;;;;;;6310830;28;20260;-64
2021/08/20 15:29:48;;;;;;;4.23;3.83;;;27.90;44.80;;;;;;6314753;28;20233;-62
2021/08/20 15:32:52;;;;;;;4.93;2.40;;;27.90;45.20;;;;;;6300654;28;20234;-62
2021/08/20 15:35:56;;;;;;;3.43;3.13;;;28.00;45.20;;;;;;6300992;28;20253;-62
2021/08/20 15:38:59;;;;;;;6.97;3.73;;;27.90;45.10;;;;;;6300780;28;20249;-62
2021/08/20 15:42:02;;;;;;;4.23;3.50;;;27.80;45.60;;;;;;6321570;28;20539;-64
2021/08/20 15:45:07;;;;;;;3.37;3.07;;;27.90;45.50;;;;;;6337027;27;20230;-62
2021/08/20 15:48:12;;;;;;;6.17;3.80;;;28.10;45.60;;;;;;6314683;28;20222;-62
2021/08/20 15:51:16;;;;;;;4.10;3.47;;;28.20;45.50;;;;;;6313650;28;20260;-62
2021/08/20 15:54:19;;;;;;;3.23;2.93;;;28.30;45.10;;;;;;6312006;28;20560;-62
2021/08/20 15:57:23;;;;;;;4.10;3.70;;;28.30;45.10;;;;;;6309296;28;20230;-62
2021/08/20 16:00:26;;;;;;;4.33;3.20;;;28.20;45.10;;;;;;6312217;28;20267;-63
2021/08/20 16:03:31;;;;;;;4.13;3.73;;;28.10;45.50;;;;;;6312209;28;20233;-63